createdAt,value
2017-05-25T16:36:34.928Z,26.95
2017-05-25T16:37:15.252Z,27.22
2017-05-25T16:37:55.758Z,26.95
2017-05-25T16:38:36.265Z,26.84
2017-05-25T16:39:16.757Z,26.73
2017-05-25T16:39:57.269Z,26.8
2017-05-25T16:40:37.821Z,26.44
2017-05-25T16:41:18.313Z,26.89
2017-05-25T16:41:58.856Z,27.07
2017-05-25T16:42:39.379Z,27.21
2017-05-25T16:43:19.917Z,27.39
2017-05-25T16:44:00.440Z,27.65
2017-05-25T16:44:40.936Z,27.83
2017-05-25T16:45:21.404Z,28.57
2017-05-25T16:46:01.901Z,28.44
2017-05-25T16:46:42.407Z,28.51
2017-05-25T16:47:22.895Z,28.25
2017-05-25T16:48:03.395Z,28.22
2017-05-25T16:48:43.900Z,27.87
2017-05-25T16:49:24.416Z,28.47
2017-05-25T16:50:04.963Z,28.38
2017-05-25T16:50:45.467Z,27.44
2017-05-25T16:51:25.952Z,26.58
2017-05-25T16:52:06.448Z,25.63
2017-05-25T16:52:46.970Z,25.5
2017-05-25T16:53:27.474Z,25.18
2017-05-25T16:54:07.968Z,24.78
2017-05-25T16:54:48.484Z,24.78
2017-05-25T16:55:29.012Z,25.08
2017-05-25T16:56:09.500Z,24.93
2017-05-25T16:56:50.033Z,25.53
2017-05-25T16:57:30.495Z,-38.84
2017-05-25T16:58:11.024Z,-38.84
2017-05-25T16:58:51.528Z,-38.84
2017-05-25T16:59:32.029Z,-38.84
2017-05-25T17:00:12.531Z,-38.84
2017-05-25T17:00:53.073Z,-38.84
2017-05-25T17:01:33.534Z,-39.49
2017-05-25T17:02:14.048Z,-39.49
2017-05-25T17:02:54.675Z,-38.84
2017-05-25T17:03:35.123Z,-38.84
2017-05-25T17:04:15.587Z,-38.84
2017-05-25T17:04:56.103Z,-38.84
2017-05-25T17:05:36.572Z,-38.84
2017-05-25T17:06:17.117Z,-39.49
2017-05-25T17:06:57.610Z,-38.84
2017-05-25T17:07:38.087Z,-38.84
2017-05-25T17:08:18.577Z,-38.84
2017-05-25T17:08:59.082Z,-38.84
2017-05-25T17:09:39.600Z,-38.84
2017-05-25T17:10:20.101Z,-38.84
2017-05-25T17:11:00.617Z,-38.84
2017-05-25T17:11:41.196Z,-38.84
2017-05-25T17:12:21.720Z,-38.84
2017-05-25T17:13:02.219Z,-38.84
2017-05-25T17:13:42.725Z,-38.84
2017-05-25T17:14:23.198Z,-38.84
2017-05-25T17:15:03.726Z,-38.84
2017-05-25T17:15:44.222Z,-38.84
2017-05-25T17:16:24.705Z,-39.49
2017-05-25T17:17:05.189Z,-38.84
2017-05-25T17:17:45.684Z,-38.84
2017-05-25T17:18:26.206Z,-38.84
2017-05-25T17:19:06.685Z,-39.49
2017-05-25T17:19:47.168Z,-38.84
2017-05-25T17:20:27.682Z,-38.84
2017-05-25T17:21:08.182Z,-39.49
2017-05-25T17:21:48.670Z,-39.49
2017-05-25T17:22:29.179Z,-39.49
2017-05-25T17:23:09.666Z,-39.49
2017-05-25T17:23:50.188Z,-39.49
2017-05-25T17:24:30.684Z,-39.49
2017-05-25T17:25:11.209Z,-39.49
2017-05-25T17:25:51.695Z,-39.49
2017-05-25T17:26:32.217Z,-39.49
2017-05-25T17:27:12.719Z,-39.49
2017-05-25T17:27:53.223Z,-39.49
2017-05-25T17:28:33.718Z,-39.49
2017-05-25T17:29:14.237Z,-39.49
2017-05-25T17:29:54.747Z,-39.49
2017-05-25T17:30:35.242Z,-39.49
2017-05-25T17:31:15.729Z,-39.49
2017-05-25T17:31:56.296Z,-39.49
2017-05-25T17:32:36.777Z,-39.49
2017-05-25T17:33:17.309Z,-39.49
2017-05-25T17:33:57.823Z,-39.49
2017-05-25T17:34:38.281Z,-39.49
2017-05-25T17:35:18.791Z,-39.49
2017-05-25T17:35:59.327Z,-39.49
2017-05-25T17:36:39.825Z,-39.49
2017-05-25T17:37:20.345Z,-39.49
2017-05-25T17:38:00.855Z,-39.49
2017-05-25T17:38:41.348Z,-39.49
2017-05-25T17:39:21.819Z,-39.49
2017-05-25T17:40:02.334Z,-39.49
2017-05-25T17:40:42.842Z,-39.49
2017-05-25T17:41:23.349Z,-39.49
2017-05-25T17:42:03.848Z,-39.49
2017-05-25T17:42:44.371Z,-39.49
2017-05-25T17:43:24.870Z,-39.49
2017-05-25T17:44:05.361Z,-39.49
2017-05-25T17:44:45.900Z,-39.49
2017-05-25T17:45:26.366Z,-39.49
2017-05-25T17:46:06.848Z,-39.49
2017-05-25T17:46:47.349Z,-39.49
2017-05-25T17:47:27.840Z,-39.49
2017-05-25T17:48:08.307Z,-39.49
2017-05-25T17:48:48.790Z,-39.49
2017-05-25T17:49:29.312Z,-39.49
2017-05-25T17:50:09.816Z,-39.49
2017-05-25T17:50:50.315Z,-39.49
2017-05-25T17:51:30.832Z,-39.49
2017-05-25T17:52:11.327Z,-39.49
2017-05-25T17:52:51.804Z,-39.49
2017-05-25T17:53:32.284Z,-39.49
2017-05-25T17:54:12.846Z,-39.49
2017-05-25T17:54:53.308Z,-39.49
2017-05-25T17:55:33.848Z,-39.49
2017-05-25T17:56:14.378Z,-39.49
2017-05-25T17:56:54.868Z,-39.49
2017-05-25T17:57:35.367Z,-39.49
2017-05-25T17:58:15.874Z,-39.49
2017-05-25T17:58:56.380Z,-39.49
2017-05-25T17:59:36.906Z,-39.49
2017-05-25T18:00:17.365Z,-39.49
2017-05-25T18:00:57.871Z,-39.49
2017-05-25T18:01:38.357Z,-39.49
2017-05-25T18:02:18.878Z,-39.49
2017-05-25T18:02:59.359Z,-39.49
2017-05-25T18:03:39.840Z,-39.49
2017-05-25T18:04:20.395Z,-39.49
2017-05-25T18:05:00.880Z,-39.49
2017-05-25T18:05:41.364Z,-39.49
2017-05-25T18:06:21.868Z,-39.49
2017-05-25T18:07:02.376Z,-39.49
2017-05-25T18:07:42.896Z,-39.49
2017-05-25T18:08:23.381Z,-39.49
2017-05-25T18:09:03.881Z,-39.49
2017-05-25T18:09:44.366Z,-39.49
2017-05-25T18:10:24.850Z,-39.49
2017-05-25T18:11:05.339Z,-39.49
2017-05-25T18:11:45.833Z,-39.49
2017-05-25T18:12:26.317Z,-39.49
2017-05-25T18:13:06.833Z,-39.49
2017-05-25T18:13:47.374Z,-39.49
2017-05-25T18:14:27.857Z,-39.49
2017-05-25T18:15:08.369Z,-39.49
2017-05-25T18:15:48.849Z,-39.49
2017-05-25T18:16:29.345Z,-39.49
2017-05-25T18:17:09.857Z,-39.49
2017-05-25T18:17:50.387Z,-39.49
2017-05-25T18:18:30.897Z,-39.49
2017-05-25T18:19:11.353Z,-39.49
2017-05-25T18:19:51.842Z,-39.49
2017-05-25T18:20:32.333Z,-39.49
2017-05-25T18:21:12.805Z,-39.49
2017-05-25T18:21:53.300Z,-39.49
2017-05-25T18:22:33.778Z,-39.49
2017-05-25T18:23:14.298Z,-39.49
2017-05-25T18:23:54.825Z,-39.49
2017-05-25T18:24:35.441Z,-39.49
2017-05-25T18:25:15.938Z,-39.49
2017-05-25T18:25:56.448Z,-39.49
2017-05-25T18:26:36.929Z,-39.49
2017-05-25T18:27:17.441Z,-39.49
2017-05-25T18:27:57.936Z,-39.49
2017-05-25T18:28:38.426Z,-39.49
2017-05-25T18:29:18.928Z,-39.49
2017-05-25T18:29:59.445Z,-39.49
2017-05-25T18:30:39.916Z,-39.49
2017-05-25T18:31:20.432Z,-39.49
2017-05-25T18:32:00.914Z,-39.49
2017-05-25T18:32:41.418Z,-39.49
2017-05-25T18:33:21.910Z,-39.49
2017-05-25T18:34:02.396Z,-39.49
2017-05-25T18:34:42.869Z,-39.49
2017-05-25T18:35:23.374Z,-39.49
2017-05-25T18:36:03.891Z,-39.49
2017-05-25T18:36:44.415Z,-39.49
2017-05-25T18:37:24.896Z,-39.49
2017-05-25T18:38:05.423Z,-39.49
2017-05-25T18:38:45.938Z,-39.49
2017-05-25T18:39:26.441Z,-39.49
2017-05-25T18:40:06.913Z,-39.49
2017-05-25T18:40:47.405Z,-39.49
2017-05-25T18:41:27.922Z,-39.49
2017-05-25T18:42:08.460Z,-39.49
2017-05-25T18:42:48.921Z,-39.49
2017-05-25T18:43:29.439Z,-39.49
2017-05-25T18:44:09.983Z,-39.49
2017-05-25T18:44:50.476Z,-39.49
2017-05-25T18:45:30.999Z,-39.49
2017-05-25T18:46:11.513Z,-39.49
2017-05-25T18:46:51.995Z,-39.49
2017-05-25T18:47:32.497Z,-39.49
2017-05-25T18:48:12.986Z,-39.49
2017-05-25T18:48:53.507Z,-39.49
2017-05-25T18:49:33.997Z,-39.49
2017-05-25T18:50:14.512Z,-39.49
2017-05-25T18:50:55.067Z,-39.49
2017-05-25T18:51:35.524Z,-39.49
2017-05-25T18:52:16.026Z,-39.49
2017-05-25T18:52:56.529Z,-39.49
2017-05-25T18:53:37.032Z,-39.49
2017-05-25T18:54:17.576Z,-39.49
2017-05-25T18:54:58.020Z,-39.49
2017-05-25T18:55:38.504Z,-39.49
2017-05-25T18:56:19.022Z,-39.49
2017-05-25T18:56:59.518Z,-39.49
2017-05-25T18:57:40.059Z,-39.49
2017-05-25T18:58:20.538Z,-39.49
2017-05-25T18:59:01.024Z,-39.49
2017-05-25T18:59:41.553Z,-39.49
2017-05-25T19:00:22.103Z,-39.49
2017-05-25T19:01:02.589Z,-39.49
2017-05-25T19:01:43.117Z,-39.49
2017-05-25T19:02:23.634Z,-39.49
2017-05-25T19:03:04.151Z,-39.49
2017-05-25T19:03:44.651Z,-39.49
2017-05-25T19:04:25.157Z,-39.49
2017-05-25T19:05:05.650Z,-39.49
2017-05-25T19:05:46.174Z,-39.49
2017-05-25T19:06:26.656Z,-39.49
2017-05-25T19:07:07.157Z,-39.49
2017-05-25T19:07:47.659Z,-39.49
2017-05-25T19:08:28.138Z,-39.49
2017-05-25T19:09:08.646Z,-39.49
2017-05-25T19:09:49.161Z,-39.49
2017-05-25T19:10:29.661Z,-39.49
2017-05-25T19:11:10.156Z,-39.49
2017-05-25T19:11:50.635Z,-39.49
2017-05-25T19:12:31.148Z,-39.49
2017-05-25T19:13:11.646Z,-39.49
2017-05-25T19:13:52.146Z,-39.49
2017-05-25T19:14:32.676Z,-39.49
2017-05-25T19:15:13.173Z,-39.49
2017-05-25T19:15:53.689Z,-39.49
2017-05-25T19:16:34.194Z,-39.49
2017-05-25T19:17:14.716Z,-39.49
2017-05-25T19:17:55.243Z,-39.49
2017-05-25T19:18:35.703Z,-39.49
2017-05-25T19:19:16.214Z,-39.49
2017-05-25T19:19:56.742Z,-39.49
2017-05-25T19:20:37.240Z,-39.49
2017-05-25T19:21:17.736Z,-39.49
2017-05-25T19:21:58.242Z,-39.49
2017-05-25T19:22:38.701Z,-39.49
2017-05-25T19:23:19.202Z,-39.49
2017-05-25T19:23:59.681Z,-39.49
2017-05-25T19:24:40.179Z,-39.49
2017-05-25T19:25:20.686Z,-39.49
2017-05-25T19:26:01.146Z,-39.49
2017-05-25T19:26:41.638Z,-39.49
2017-05-25T19:27:22.154Z,-39.49
2017-05-25T19:28:02.652Z,-39.49
2017-05-25T19:28:43.153Z,-39.49
2017-05-25T19:29:23.648Z,-39.49
2017-05-25T19:30:04.173Z,-39.49
2017-05-25T19:30:44.678Z,-39.49
2017-05-25T19:31:25.150Z,-39.49
2017-05-25T19:32:05.655Z,-39.49
2017-05-25T19:32:46.150Z,-39.49
2017-05-25T19:33:26.628Z,-39.49
2017-05-25T19:34:07.127Z,-39.49
2017-05-25T19:34:47.630Z,-39.49
2017-05-25T19:35:28.179Z,-39.49
2017-05-25T19:36:08.667Z,-39.49
2017-05-25T19:36:49.191Z,-39.49
2017-05-25T19:37:29.695Z,-39.49
2017-05-25T19:38:10.180Z,-39.49
2017-05-25T19:38:50.667Z,-39.49
2017-05-25T19:39:31.191Z,-39.49
2017-05-25T19:40:11.679Z,-39.49
2017-05-25T19:40:52.181Z,-39.49
2017-05-25T19:41:32.674Z,-39.49
2017-05-25T19:42:13.172Z,-39.49
2017-05-25T19:42:53.674Z,-39.49
2017-05-25T19:43:34.220Z,-39.49
2017-05-25T19:44:14.704Z,-39.49
2017-05-25T19:44:55.233Z,-39.49
2017-05-25T19:45:35.729Z,-39.49
2017-05-25T19:46:16.228Z,-39.49
2017-05-25T19:46:56.717Z,-39.49
2017-05-25T19:47:37.221Z,-39.49
2017-05-25T19:48:17.698Z,-39.49
2017-05-25T19:48:58.214Z,-39.49
2017-05-25T19:49:38.738Z,-39.49
2017-05-25T19:50:19.224Z,-39.49
2017-05-25T19:50:59.729Z,-39.49
2017-05-25T19:51:40.203Z,-39.49
2017-05-25T19:52:20.685Z,-39.49
2017-05-25T19:53:01.186Z,-39.49
2017-05-25T19:53:41.720Z,-39.49
2017-05-25T19:54:22.200Z,-39.49
2017-05-25T19:55:02.700Z,-39.49
2017-05-25T19:55:43.210Z,-39.49
2017-05-25T19:56:23.719Z,-39.49
2017-05-25T19:57:04.219Z,-39.49
2017-05-25T19:57:44.717Z,-39.49
2017-05-25T19:58:25.213Z,-39.49
2017-05-25T19:59:05.677Z,-39.49
2017-05-25T19:59:46.192Z,-39.49
2017-05-25T20:00:26.664Z,-39.49
2017-05-25T20:01:07.150Z,-39.49
2017-05-25T20:01:47.678Z,-39.49
2017-05-25T20:02:28.142Z,-39.49
2017-05-25T20:04:26.389Z,15.1
2017-05-25T20:05:06.811Z,15.17
2017-05-25T20:05:47.302Z,15
2017-05-25T20:06:27.757Z,15.04
2017-05-25T20:07:08.239Z,15
2017-05-25T20:07:48.751Z,15.02
2017-05-25T20:08:29.262Z,15.02
2017-05-25T20:09:09.747Z,14.96
2017-05-25T20:09:50.212Z,14.99
2017-05-25T20:10:30.731Z,14.99
2017-05-25T20:11:11.237Z,15
2017-05-25T20:11:51.721Z,14.94
2017-05-25T20:12:32.204Z,14.89
2017-05-25T20:13:12.668Z,14.86
2017-05-25T20:13:53.162Z,14.89
2017-05-25T20:14:33.669Z,14.88
2017-05-25T20:15:14.185Z,14.88
2017-05-25T20:15:54.693Z,14.86
2017-05-25T20:16:35.181Z,14.86
2017-05-25T20:17:15.683Z,14.88
2017-05-25T20:17:56.177Z,14.79
2017-05-25T20:18:36.702Z,14.79
2017-05-25T20:19:17.185Z,14.88
2017-05-25T20:19:57.688Z,14.82
2017-05-25T20:20:38.186Z,14.84
2017-05-25T20:21:18.690Z,14.81
2017-05-25T20:21:59.181Z,14.79
2017-05-25T20:22:39.697Z,14.92
2017-05-25T20:23:20.218Z,14.92
2017-05-25T20:24:00.702Z,14.92
2017-05-25T20:24:41.185Z,14.89
2017-05-25T20:25:21.684Z,14.81
2017-05-25T20:26:02.153Z,14.91
2017-05-25T20:26:42.631Z,14.97
2017-05-25T20:27:23.121Z,14.94
2017-05-25T20:28:03.663Z,14.91
2017-05-25T20:28:44.168Z,14.99
2017-05-25T20:29:24.653Z,14.84
2017-05-25T20:30:05.144Z,15.31
2017-05-25T20:30:45.640Z,15.82
2017-05-25T20:31:26.155Z,16.08
2017-05-25T20:32:06.657Z,16.09
2017-05-25T20:32:47.133Z,16
2017-05-25T20:33:27.634Z,15.79
2017-05-25T20:34:08.135Z,-39.49
2017-05-25T20:34:48.633Z,-39.49
2017-05-25T20:35:29.171Z,-39.49
2017-05-25T20:36:09.679Z,-39.49
2017-05-25T20:36:50.187Z,-39.49
2017-05-25T20:37:30.697Z,-39.49
2017-05-25T20:38:11.215Z,-40
2017-05-25T20:38:51.682Z,-39.49
2017-05-25T20:39:32.166Z,-40
2017-05-25T20:40:12.655Z,-40
2017-05-25T20:40:53.154Z,42.5
2017-05-25T20:41:33.647Z,-40
2017-05-25T20:42:14.171Z,-39.49
2017-05-25T20:42:54.675Z,-39.36
2017-05-25T20:43:35.206Z,-39.49
2017-05-25T20:44:15.669Z,-39.49
2017-05-25T20:44:56.157Z,-40
2017-05-25T20:45:36.653Z,-39.49
2017-05-25T20:46:17.172Z,-40
2017-05-25T20:46:57.636Z,-39.49
2017-05-25T20:47:38.169Z,-40
2017-05-25T20:48:18.662Z,-39.49
2017-05-25T20:48:59.169Z,15.54
2017-05-25T20:49:39.681Z,-39.49
2017-05-25T20:50:20.197Z,-40
2017-05-25T20:51:00.676Z,-40
2017-05-25T20:51:41.172Z,-39.49
2017-05-25T20:52:21.697Z,-40
2017-05-25T20:53:02.196Z,-39.49
2017-05-25T20:53:42.706Z,-39.49
2017-05-25T20:54:23.216Z,-40
2017-05-25T20:55:03.693Z,-40
2017-05-25T20:55:44.196Z,-39.49
2017-05-25T20:56:24.704Z,-40
2017-05-25T20:57:05.227Z,-39.49
2017-05-25T20:57:45.659Z,-40
2017-05-25T20:58:26.182Z,16.05
2017-05-25T20:59:06.669Z,-39.49
2017-05-25T20:59:47.176Z,-40
2017-05-25T21:00:27.702Z,-39.49
2017-05-25T21:01:08.208Z,-39.92
2017-05-25T21:01:48.693Z,-39.36
2017-05-25T21:02:29.203Z,-39.49
2017-05-25T21:03:09.681Z,-40
2017-05-25T21:03:50.210Z,-40
2017-05-25T21:04:30.660Z,-40
2017-05-25T21:05:11.140Z,16
2017-05-25T21:05:51.648Z,-40
2017-05-25T21:06:32.138Z,-40
2017-05-25T21:07:12.620Z,-39.49
2017-05-25T21:07:53.132Z,-40
2017-05-25T21:08:33.643Z,-39.49
2017-05-25T21:09:14.158Z,-39.49
2017-05-25T21:09:54.644Z,-40
2017-05-25T21:10:35.129Z,-39.49
2017-05-25T21:11:15.648Z,-39.49
2017-05-25T21:11:56.134Z,-40
2017-05-25T21:12:36.619Z,-39.49
2017-05-25T21:13:17.098Z,-40
2017-05-25T21:13:57.581Z,-40
2017-05-25T21:14:38.065Z,-39.49
2017-05-25T21:15:18.579Z,-40
2017-05-25T21:15:59.104Z,-40
2017-05-25T21:16:39.571Z,-39.49
2017-05-25T21:17:20.218Z,-40
2017-05-25T21:18:00.578Z,-39.49
2017-05-25T21:18:41.069Z,-39.49
2017-05-25T21:19:21.619Z,-40
2017-05-25T21:20:02.064Z,-40
2017-05-25T21:20:42.563Z,-39.96
2017-05-25T21:21:23.071Z,-40
2017-05-25T21:22:03.572Z,-40
2017-05-25T21:22:44.093Z,-40
2017-05-25T21:23:24.571Z,-40
2017-05-25T21:24:05.066Z,-40
2017-05-25T21:24:45.575Z,-40
2017-05-25T21:25:26.059Z,-39.49
2017-05-25T21:26:06.558Z,-40
2017-05-25T21:26:47.058Z,-40
2017-05-25T21:27:27.548Z,-39.49
2017-05-25T21:28:08.036Z,-40
2017-05-25T21:28:48.517Z,-39.49
2017-05-25T21:29:29.030Z,15.55
2017-05-25T21:30:09.530Z,-40
2017-05-25T21:30:50.062Z,-39.49
2017-05-25T21:31:30.556Z,-39.49
2017-05-25T21:32:11.048Z,15.43
2017-05-25T21:32:51.550Z,-39.49
2017-05-25T21:33:32.063Z,-39.49
2017-05-25T21:34:12.586Z,15.54
2017-05-25T21:34:53.072Z,-39.49
2017-05-25T21:35:33.591Z,-39.49
2017-05-25T21:36:14.109Z,1.25
2017-05-25T21:36:54.551Z,-39.49
2017-05-25T21:37:35.048Z,-39.49
2017-05-25T21:38:15.542Z,-39.49
2017-05-25T21:38:56.046Z,-40
2017-05-25T21:39:36.564Z,-39.36
2017-05-25T21:40:17.062Z,-29.69
2017-05-25T21:40:57.554Z,15.62
2017-05-25T21:41:38.055Z,-39.49
2017-05-25T21:42:18.544Z,-39.49
2017-05-25T21:42:59.098Z,-39.49
2017-05-25T21:43:39.538Z,-39.49
2017-05-25T21:44:20.035Z,-39.49
2017-05-25T21:45:00.561Z,-39.36
2017-05-25T21:45:41.057Z,-39.49
2017-05-25T21:46:21.564Z,-39.49
2017-05-25T21:47:02.055Z,-39.49
2017-05-25T21:47:42.589Z,-39.49
2017-05-25T21:48:23.031Z,-40
2017-05-25T21:49:03.507Z,1.25
2017-05-25T21:49:44.010Z,-40
2017-05-25T21:50:24.503Z,-39.49
2017-05-25T21:51:05.000Z,-39.49
2017-05-25T21:51:45.591Z,-39.49
2017-05-25T21:52:26.122Z,-39.49
2017-05-25T21:53:06.574Z,-39.49
2017-05-25T21:53:47.108Z,1.25
2017-05-25T21:54:27.591Z,-39.49
2017-05-25T21:55:08.090Z,-39.92
2017-05-25T21:55:48.602Z,-39.49
2017-05-25T21:56:29.133Z,-40
2017-05-25T21:57:09.575Z,-39.49
2017-05-25T21:57:50.071Z,-40
2017-05-25T21:58:30.542Z,-19.38
2017-05-25T21:59:11.049Z,-40
2017-05-25T21:59:51.511Z,-40
2017-05-25T22:00:32.008Z,-40
2017-05-25T22:01:12.570Z,-40
2017-05-25T22:01:53.093Z,-40
2017-05-25T22:02:33.572Z,15.52
2017-05-25T22:03:14.138Z,-40
2017-05-25T22:03:54.560Z,125
2017-05-25T22:04:35.050Z,-40
2017-05-25T22:05:15.566Z,-40
2017-05-25T22:05:56.066Z,-40
2017-05-25T22:06:36.562Z,-40
2017-05-25T22:07:17.060Z,-40
2017-05-25T22:07:57.566Z,-40
2017-05-25T22:08:38.071Z,-40
2017-05-25T22:09:18.570Z,-39.96
2017-05-25T22:09:59.090Z,-39.36
2017-05-25T22:10:39.588Z,-39.49
2017-05-25T22:11:20.088Z,-40
2017-05-25T22:12:00.559Z,-39.49
2017-05-25T22:12:41.040Z,-39.49
2017-05-25T22:13:21.546Z,-39.49
2017-05-25T22:14:02.027Z,-34.85
2017-05-25T22:14:42.512Z,-39.49
2017-05-25T22:15:23.025Z,-39.49
2017-05-25T22:16:03.517Z,-39.49
2017-05-25T22:16:44.022Z,1.25
2017-05-25T22:17:24.501Z,-39.49
2017-05-25T22:18:04.997Z,-39.49
2017-05-25T22:18:45.530Z,-39.49
2017-05-25T22:19:26.024Z,-39.49
2017-05-25T22:20:06.527Z,-39.49
2017-05-25T22:20:47.046Z,125
2017-05-25T22:21:27.579Z,-40
2017-05-25T22:22:08.039Z,-40
2017-05-25T22:22:48.546Z,-40
2017-05-25T22:23:29.085Z,-40
2017-05-25T22:24:09.573Z,-40
2017-05-25T22:24:50.075Z,-40
2017-05-25T22:25:30.585Z,-39.49
2017-05-25T22:26:11.090Z,1.25
2017-05-25T22:26:51.571Z,-39.49
2017-05-25T22:27:32.077Z,-39.49
2017-05-25T22:28:12.581Z,-39.49
2017-05-25T22:28:53.067Z,42.5
2017-05-25T22:29:33.555Z,-40
2017-05-25T22:30:14.026Z,-39.49
2017-05-25T22:30:54.561Z,-40
2017-05-25T22:31:35.043Z,-40
2017-05-25T22:32:15.531Z,-40
2017-05-25T22:32:56.048Z,-39.49
2017-05-25T22:33:36.539Z,-39.49
2017-05-25T22:34:17.027Z,-40
2017-05-25T22:34:57.497Z,-39.49
2017-05-25T22:35:37.978Z,-39.49
2017-05-25T22:36:18.466Z,-39.68
2017-05-25T22:36:58.944Z,-39.49
2017-05-25T22:37:39.443Z,-39.49
2017-05-25T22:38:19.937Z,-39.49
2017-05-25T22:39:00.448Z,-39.49
2017-05-25T22:39:40.937Z,-39.49
2017-05-25T22:40:21.444Z,-39.49
2017-05-25T22:41:01.932Z,-39.49
2017-05-25T22:41:42.422Z,-40
2017-05-25T22:42:22.919Z,13.93
2017-05-25T22:43:03.387Z,13.93
2017-05-25T22:43:43.864Z,-40
2017-05-25T22:44:24.337Z,13.83
2017-05-25T22:45:04.869Z,-39.49
2017-05-25T22:45:45.369Z,-39.49
2017-05-25T22:46:25.843Z,-40
2017-05-25T22:47:06.347Z,-38.71
2017-05-25T22:47:46.874Z,-40
2017-05-25T22:48:27.338Z,13.86
2017-05-25T22:49:07.825Z,-39.49
2017-05-25T22:49:48.333Z,-39.49
2017-05-25T22:50:28.834Z,-40
2017-05-25T22:51:09.369Z,-39.49
2017-05-25T22:51:49.863Z,-39.49
2017-05-25T22:52:30.390Z,-40
2017-05-25T22:53:10.873Z,-39.49
2017-05-25T22:53:51.350Z,-40
2017-05-25T22:54:31.880Z,1.25
2017-05-25T22:55:12.369Z,-39.49
2017-05-25T22:55:52.887Z,-39.49
2017-05-25T22:56:33.354Z,-39.49
2017-05-25T22:57:13.867Z,-39.49
2017-05-25T22:57:54.333Z,-39.49
2017-05-25T22:58:34.855Z,-39.49
2017-05-25T22:59:15.337Z,-40
2017-05-25T22:59:55.840Z,-39.49
2017-05-25T23:00:36.340Z,-39.49
2017-05-25T23:01:16.830Z,-39.49
2017-05-25T23:01:57.310Z,-40
2017-05-25T23:02:37.803Z,-39.49
2017-05-25T23:03:18.288Z,-39.49
2017-05-25T23:03:58.765Z,-39.49
2017-05-25T23:04:39.282Z,-39.36
2017-05-25T23:05:19.754Z,-40
2017-05-25T23:06:00.262Z,-40
2017-05-25T23:06:40.760Z,-40
2017-05-25T23:07:21.224Z,-40
2017-05-25T23:08:01.729Z,-40
2017-05-25T23:08:42.236Z,-39.49
2017-05-25T23:09:22.729Z,-40
2017-05-25T23:10:03.251Z,-40
2017-05-25T23:10:43.737Z,-40
2017-05-25T23:11:24.209Z,-40
2017-05-25T23:12:04.679Z,-40
2017-05-25T23:12:45.162Z,-40
2017-05-25T23:13:25.655Z,-39.49
2017-05-25T23:14:06.120Z,-39.49
2017-05-25T23:14:46.628Z,-39.49
2017-05-25T23:15:27.119Z,-40
2017-05-25T23:16:07.579Z,-39.49
2017-05-25T23:16:48.099Z,-39.49
2017-05-25T23:17:28.622Z,-39.49
2017-05-25T23:18:09.108Z,-39.49
2017-05-25T23:18:49.572Z,-39.49
2017-05-25T23:19:30.050Z,13.63
2017-05-25T23:20:10.544Z,125
2017-05-25T23:20:51.043Z,-39.49
2017-05-25T23:21:31.535Z,-40
2017-05-25T23:22:12.013Z,-39.49
2017-05-25T23:22:52.503Z,-39.49
2017-05-25T23:23:33.010Z,-39.49
2017-05-25T23:24:13.512Z,-40
2017-05-25T23:24:54.021Z,-39.49
2017-05-25T23:25:34.514Z,-39.49
2017-05-25T23:26:15.015Z,-40
2017-05-25T23:26:55.522Z,-39.49
2017-05-25T23:27:35.996Z,-39.49
2017-05-25T23:28:16.494Z,-39.49
2017-05-25T23:28:56.971Z,-39.49
2017-05-25T23:29:37.439Z,-40
2017-05-25T23:30:17.976Z,14.82
2017-05-25T23:30:58.433Z,-39.49
2017-05-25T23:31:38.912Z,-39.49
2017-05-25T23:32:19.434Z,-39.49
2017-05-25T23:32:59.906Z,-39.49
2017-05-25T23:33:40.413Z,-39.49
2017-05-25T23:34:20.899Z,-40
2017-05-25T23:35:01.398Z,-40
2017-05-25T23:35:41.876Z,-39.49
2017-05-25T23:36:22.382Z,-39.49
2017-05-25T23:37:02.872Z,-39.49
2017-05-25T23:37:43.355Z,-39.49
2017-05-25T23:38:23.850Z,-39.49
2017-05-25T23:39:04.350Z,-39.49
2017-05-25T23:39:44.866Z,-39.49
2017-05-25T23:40:25.346Z,-40
2017-05-25T23:41:05.857Z,-39.49
2017-05-25T23:41:46.353Z,-40
2017-05-25T23:42:26.861Z,-39.49
2017-05-25T23:43:07.322Z,-39.49
2017-05-25T23:43:47.831Z,-39.49
2017-05-25T23:44:28.305Z,-39.49
2017-05-25T23:45:08.788Z,-39.49
2017-05-25T23:45:49.273Z,-40
2017-05-25T23:46:29.752Z,-39.49
2017-05-25T23:47:10.298Z,-39.49
2017-05-25T23:47:50.766Z,-39.49
2017-05-25T23:48:31.258Z,-39.49
2017-05-25T23:49:11.751Z,-39.49
2017-05-25T23:49:52.208Z,-39.49
2017-05-25T23:50:32.698Z,-39.49
2017-05-25T23:51:13.197Z,-39.49
2017-05-25T23:51:53.683Z,-39.49
2017-05-25T23:52:34.183Z,-39.49
2017-05-25T23:53:14.664Z,-39.49
2017-05-25T23:53:55.173Z,-39.49
2017-05-25T23:54:35.654Z,-40
2017-05-25T23:55:16.154Z,-39.49
2017-05-25T23:55:56.647Z,-39.49
2017-05-25T23:56:37.143Z,-39.49
2017-05-25T23:57:17.646Z,-40
2017-05-25T23:57:58.168Z,-39.49
2017-05-25T23:58:38.680Z,-39.49
2017-05-25T23:59:19.183Z,-40
2017-05-25T23:59:59.677Z,-40
